sensor_id;sensor_type;location;lat;lon;timestamp;P1;durP1;ratioP1;P2;durP2;ratioP2
27213;SDS011;14723;55.814;37.460;2022-09-29T00:02:19;8.40;;;6.13;;
27213;SDS011;14723;55.814;37.460;2022-09-29T00:05:24;9.32;;;5.97;;
27213;SDS011;14723;55.814;37.460;2022-09-29T00:08:29;8.25;;;5.80;;
27213;SDS011;14723;55.814;37.460;2022-09-29T00:11:35;9.23;;;5.78;;
27213;SDS011;14723;55.814;37.460;2022-09-29T00:14:42;7.72;;;5.68;;
27213;SDS011;14723;55.814;37.460;2022-09-29T00:17:48;9.68;;;6.60;;
27213;SDS011;14723;55.814;37.460;2022-09-29T00:21:14;8.20;;;5.57;;
27213;SDS011;14723;55.814;37.460;2022-09-29T00:24:20;7.93;;;5.70;;
27213;SDS011;14723;55.814;37.460;2022-09-29T00:27:25;9.93;;;5.68;;
27213;SDS011;14723;55.814;37.460;2022-09-29T00:30:33;11.65;;;5.95;;
27213;SDS011;14723;55.814;37.460;2022-09-29T00:33:38;10.85;;;6.47;;
27213;SDS011;14723;55.814;37.460;2022-09-29T00:36:44;10.75;;;6.18;;
27213;SDS011;14723;55.814;37.460;2022-09-29T00:39:49;9.90;;;5.90;;
27213;SDS011;14723;55.814;37.460;2022-09-29T00:42:55;9.32;;;5.88;;
27213;SDS011;14723;55.814;37.460;2022-09-29T00:46:02;8.60;;;5.80;;
27213;SDS011;14723;55.814;37.460;2022-09-29T00:49:11;8.02;;;5.95;;
27213;SDS011;14723;55.814;37.460;2022-09-29T00:52:18;8.30;;;5.65;;
27213;SDS011;14723;55.814;37.460;2022-09-29T00:55:25;8.82;;;5.65;;
27213;SDS011;14723;55.814;37.460;2022-09-29T00:58:33;10.00;;;5.83;;
27213;SDS011;14723;55.814;37.460;2022-09-29T01:01:41;11.23;;;6.43;;
27213;SDS011;14723;55.814;37.460;2022-09-29T01:04:47;12.52;;;6.68;;
27213;SDS011;14723;55.814;37.460;2022-09-29T01:07:55;11.25;;;6.88;;
27213;SDS011;14723;55.814;37.460;2022-09-29T01:11:00;10.45;;;6.18;;
27213;SDS011;14723;55.814;37.460;2022-09-29T01:14:06;14.18;;;7.25;;
27213;SDS011;14723;55.814;37.460;2022-09-29T01:17:15;10.27;;;6.25;;
27213;SDS011;14723;55.814;37.460;2022-09-29T01:26:57;10.90;;;6.75;;
27213;SDS011;14723;55.814;37.460;2022-09-29T01:30:17;10.45;;;7.28;;
27213;SDS011;14723;55.814;37.460;2022-09-29T01:33:28;11.63;;;6.63;;
27213;SDS011;14723;55.814;37.460;2022-09-29T01:36:37;10.07;;;7.07;;
27213;SDS011;14723;55.814;37.460;2022-09-29T01:39:50;9.95;;;6.70;;
27213;SDS011;14723;55.814;37.460;2022-09-29T01:42:59;10.55;;;6.90;;
27213;SDS011;14723;55.814;37.460;2022-09-29T01:49:14;10.85;;;6.30;;
27213;SDS011;14723;55.814;37.460;2022-09-29T01:52:21;10.73;;;6.32;;
27213;SDS011;14723;55.814;37.460;2022-09-29T01:55:30;11.25;;;5.97;;
27213;SDS011;14723;55.814;37.460;2022-09-29T01:58:36;11.38;;;5.97;;
27213;SDS011;14723;55.814;37.460;2022-09-29T02:01:42;8.10;;;5.80;;
27213;SDS011;14723;55.814;37.460;2022-09-29T02:04:52;8.02;;;5.60;;
27213;SDS011;14723;55.814;37.460;2022-09-29T02:07:59;8.63;;;5.78;;
27213;SDS011;14723;55.814;37.460;2022-09-29T02:11:07;8.18;;;5.90;;
27213;SDS011;14723;55.814;37.460;2022-09-29T02:14:13;9.10;;;5.60;;
27213;SDS011;14723;55.814;37.460;2022-09-29T02:17:21;10.93;;;6.25;;
27213;SDS011;14723;55.814;37.460;2022-09-29T02:20:30;9.70;;;5.80;;
27213;SDS011;14723;55.814;37.460;2022-09-29T02:23:35;8.27;;;5.73;;
27213;SDS011;14723;55.814;37.460;2022-09-29T02:26:41;9.27;;;6.25;;
27213;SDS011;14723;55.814;37.460;2022-09-29T02:29:46;8.43;;;5.68;;
27213;SDS011;14723;55.814;37.460;2022-09-29T02:32:52;9.32;;;6.20;;
27213;SDS011;14723;55.814;37.460;2022-09-29T02:36:02;8.98;;;5.90;;
27213;SDS011;14723;55.814;37.460;2022-09-29T02:39:11;10.80;;;5.80;;
27213;SDS011;14723;55.814;37.460;2022-09-29T02:42:21;9.73;;;5.85;;
27213;SDS011;14723;55.814;37.460;2022-09-29T02:45:31;8.00;;;5.55;;
27213;SDS011;14723;55.814;37.460;2022-09-29T02:52:07;9.38;;;5.78;;
27213;SDS011;14723;55.814;37.460;2022-09-29T02:55:16;10.88;;;5.95;;
27213;SDS011;14723;55.814;37.460;2022-09-29T02:58:24;8.68;;;6.28;;
27213;SDS011;14723;55.814;37.460;2022-09-29T03:01:31;9.07;;;6.38;;
27213;SDS011;14723;55.814;37.460;2022-09-29T03:04:36;9.48;;;5.20;;
27213;SDS011;14723;55.814;37.460;2022-09-29T03:07:44;7.80;;;5.10;;
27213;SDS011;14723;55.814;37.460;2022-09-29T03:10:49;9.70;;;5.55;;
27213;SDS011;14723;55.814;37.460;2022-09-29T03:13:54;7.00;;;5.03;;
27213;SDS011;14723;55.814;37.460;2022-09-29T03:16:59;10.05;;;6.50;;
27213;SDS011;14723;55.814;37.460;2022-09-29T03:20:05;6.68;;;5.20;;
27213;SDS011;14723;55.814;37.460;2022-09-29T03:23:13;7.35;;;5.22;;
27213;SDS011;14723;55.814;37.460;2022-09-29T03:26:18;7.07;;;4.90;;
27213;SDS011;14723;55.814;37.460;2022-09-29T03:29:24;7.70;;;5.38;;
27213;SDS011;14723;55.814;37.460;2022-09-29T03:32:30;10.45;;;5.93;;
27213;SDS011;14723;55.814;37.460;2022-09-29T03:35:35;11.98;;;6.00;;
27213;SDS011;14723;55.814;37.460;2022-09-29T03:38:47;8.80;;;5.40;;
27213;SDS011;14723;55.814;37.460;2022-09-29T03:41:52;8.17;;;5.13;;
27213;SDS011;14723;55.814;37.460;2022-09-29T03:44:58;11.80;;;5.20;;
27213;SDS011;14723;55.814;37.460;2022-09-29T03:48:04;8.57;;;5.43;;
27213;SDS011;14723;55.814;37.460;2022-09-29T03:51:09;6.88;;;5.13;;
27213;SDS011;14723;55.814;37.460;2022-09-29T03:54:16;9.15;;;6.45;;
27213;SDS011;14723;55.814;37.460;2022-09-29T03:57:22;8.27;;;5.38;;
27213;SDS011;14723;55.814;37.460;2022-09-29T04:00:27;7.20;;;5.07;;
27213;SDS011;14723;55.814;37.460;2022-09-29T04:03:32;7.47;;;4.85;;
27213;SDS011;14723;55.814;37.460;2022-09-29T04:06:37;7.95;;;5.28;;
27213;SDS011;14723;55.814;37.460;2022-09-29T04:09:45;12.70;;;5.63;;
27213;SDS011;14723;55.814;37.460;2022-09-29T04:12:50;7.33;;;4.87;;
27213;SDS011;14723;55.814;37.460;2022-09-29T04:15:56;8.00;;;4.82;;
27213;SDS011;14723;55.814;37.460;2022-09-29T04:19:01;11.55;;;5.10;;
27213;SDS011;14723;55.814;37.460;2022-09-29T04:22:07;11.52;;;5.55;;
27213;SDS011;14723;55.814;37.460;2022-09-29T04:25:15;7.60;;;4.95;;
27213;SDS011;14723;55.814;37.460;2022-09-29T04:28:20;11.10;;;5.00;;
27213;SDS011;14723;55.814;37.460;2022-09-29T04:31:25;7.53;;;4.28;;
27213;SDS011;14723;55.814;37.460;2022-09-29T04:34:30;8.40;;;4.50;;
27213;SDS011;14723;55.814;37.460;2022-09-29T04:37:35;9.30;;;5.60;;
27213;SDS011;14723;55.814;37.460;2022-09-29T04:40:43;6.63;;;4.82;;
27213;SDS011;14723;55.814;37.460;2022-09-29T04:43:48;12.55;;;6.20;;
27213;SDS011;14723;55.814;37.460;2022-09-29T04:46:53;8.85;;;5.13;;
27213;SDS011;14723;55.814;37.460;2022-09-29T04:49:59;6.80;;;4.72;;
27213;SDS011;14723;55.814;37.460;2022-09-29T04:53:04;7.95;;;5.60;;
27213;SDS011;14723;55.814;37.460;2022-09-29T04:56:12;11.68;;;5.25;;
27213;SDS011;14723;55.814;37.460;2022-09-29T04:59:17;9.10;;;5.47;;
27213;SDS011;14723;55.814;37.460;2022-09-29T05:02:22;8.98;;;5.70;;
27213;SDS011;14723;55.814;37.460;2022-09-29T05:05:28;9.85;;;6.18;;
27213;SDS011;14723;55.814;37.460;2022-09-29T05:08:33;10.48;;;6.32;;
27213;SDS011;14723;55.814;37.460;2022-09-29T05:11:40;7.43;;;5.50;;
27213;SDS011;14723;55.814;37.460;2022-09-29T05:14:45;6.77;;;4.93;;
27213;SDS011;14723;55.814;37.460;2022-09-29T05:17:50;8.23;;;5.63;;
27213;SDS011;14723;55.814;37.460;2022-09-29T05:21:00;7.30;;;4.65;;
27213;SDS011;14723;55.814;37.460;2022-09-29T05:24:26;15.25;;;4.93;;
27213;SDS011;14723;55.814;37.460;2022-09-29T05:27:34;7.43;;;5.00;;
27213;SDS011;14723;55.814;37.460;2022-09-29T05:30:39;8.57;;;5.13;;
27213;SDS011;14723;55.814;37.460;2022-09-29T05:33:45;9.15;;;4.63;;
27213;SDS011;14723;55.814;37.460;2022-09-29T05:36:50;8.43;;;5.20;;
27213;SDS011;14723;55.814;37.460;2022-09-29T05:39:55;9.77;;;5.30;;
27213;SDS011;14723;55.814;37.460;2022-09-29T05:43:03;10.75;;;5.22;;
27213;SDS011;14723;55.814;37.460;2022-09-29T05:46:08;6.67;;;5.00;;
27213;SDS011;14723;55.814;37.460;2022-09-29T05:49:15;8.68;;;5.15;;
27213;SDS011;14723;55.814;37.460;2022-09-29T05:52:21;8.77;;;5.45;;
27213;SDS011;14723;55.814;37.460;2022-09-29T05:55:26;8.20;;;5.25;;
27213;SDS011;14723;55.814;37.460;2022-09-29T05:58:34;10.68;;;5.45;;
27213;SDS011;14723;55.814;37.460;2022-09-29T06:01:40;7.60;;;5.20;;
27213;SDS011;14723;55.814;37.460;2022-09-29T06:04:45;8.80;;;5.57;;
27213;SDS011;14723;55.814;37.460;2022-09-29T06:07:50;7.68;;;5.15;;
27213;SDS011;14723;55.814;37.460;2022-09-29T06:11:01;9.93;;;5.63;;
27213;SDS011;14723;55.814;37.460;2022-09-29T06:14:08;11.73;;;6.00;;
27213;SDS011;14723;55.814;37.460;2022-09-29T06:17:13;15.93;;;7.10;;
27213;SDS011;14723;55.814;37.460;2022-09-29T06:20:19;13.18;;;7.25;;
27213;SDS011;14723;55.814;37.460;2022-09-29T06:23:23;12.45;;;7.25;;
27213;SDS011;14723;55.814;37.460;2022-09-29T06:26:28;10.95;;;6.82;;
27213;SDS011;14723;55.814;37.460;2022-09-29T06:29:36;9.30;;;6.30;;
27213;SDS011;14723;55.814;37.460;2022-09-29T06:32:41;10.37;;;6.70;;
27213;SDS011;14723;55.814;37.460;2022-09-29T06:35:48;10.32;;;6.57;;
27213;SDS011;14723;55.814;37.460;2022-09-29T06:39:06;12.03;;;7.13;;
27213;SDS011;14723;55.814;37.460;2022-09-29T06:42:11;12.27;;;7.50;;
27213;SDS011;14723;55.814;37.460;2022-09-29T06:45:19;16.38;;;7.05;;
27213;SDS011;14723;55.814;37.460;2022-09-29T06:48:24;11.25;;;7.78;;
27213;SDS011;14723;55.814;37.460;2022-09-29T06:51:30;15.00;;;7.05;;
27213;SDS011;14723;55.814;37.460;2022-09-29T06:54:46;15.57;;;8.20;;
27213;SDS011;14723;55.814;37.460;2022-09-29T06:57:51;15.27;;;7.60;;
27213;SDS011;14723;55.814;37.460;2022-09-29T07:01:04;19.50;;;7.43;;
27213;SDS011;14723;55.814;37.460;2022-09-29T07:04:09;13.95;;;7.60;;
27213;SDS011;14723;55.814;37.460;2022-09-29T07:07:15;11.45;;;7.15;;
27213;SDS011;14723;55.814;37.460;2022-09-29T07:10:20;14.02;;;7.72;;
27213;SDS011;14723;55.814;37.460;2022-09-29T07:13:25;15.63;;;8.15;;
27213;SDS011;14723;55.814;37.460;2022-09-29T07:16:33;16.75;;;8.45;;
27213;SDS011;14723;55.814;37.460;2022-09-29T07:19:38;15.57;;;8.73;;
27213;SDS011;14723;55.814;37.460;2022-09-29T07:22:45;17.38;;;9.73;;
27213;SDS011;14723;55.814;37.460;2022-09-29T07:25:50;15.48;;;9.05;;
27213;SDS011;14723;55.814;37.460;2022-09-29T07:28:55;17.15;;;9.82;;
27213;SDS011;14723;55.814;37.460;2022-09-29T07:32:03;17.38;;;9.85;;
27213;SDS011;14723;55.814;37.460;2022-09-29T07:35:17;17.73;;;10.13;;
27213;SDS011;14723;55.814;37.460;2022-09-29T07:38:22;25.63;;;11.20;;
27213;SDS011;14723;55.814;37.460;2022-09-29T07:41:27;19.13;;;10.10;;
27213;SDS011;14723;55.814;37.460;2022-09-29T07:44:32;19.10;;;11.02;;
27213;SDS011;14723;55.814;37.460;2022-09-29T07:47:40;20.60;;;10.10;;
27213;SDS011;14723;55.814;37.460;2022-09-29T07:50:47;21.30;;;10.43;;
27213;SDS011;14723;55.814;37.460;2022-09-29T07:53:53;16.38;;;8.98;;
27213;SDS011;14723;55.814;37.460;2022-09-29T07:56:58;18.65;;;10.23;;
27213;SDS011;14723;55.814;37.460;2022-09-29T08:00:05;22.02;;;9.30;;
27213;SDS011;14723;55.814;37.460;2022-09-29T08:03:15;16.45;;;9.88;;
27213;SDS011;14723;55.814;37.460;2022-09-29T08:06:20;20.70;;;10.93;;
27213;SDS011;14723;55.814;37.460;2022-09-29T08:09:25;16.70;;;9.18;;
27213;SDS011;14723;55.814;37.460;2022-09-29T08:12:41;19.65;;;9.85;;
27213;SDS011;14723;55.814;37.460;2022-09-29T08:15:46;16.52;;;8.85;;
27213;SDS011;14723;55.814;37.460;2022-09-29T08:18:54;22.08;;;10.80;;
27213;SDS011;14723;55.814;37.460;2022-09-29T08:21:59;23.85;;;11.02;;
27213;SDS011;14723;55.814;37.460;2022-09-29T08:25:05;18.15;;;11.27;;
27213;SDS011;14723;55.814;37.460;2022-09-29T08:28:11;24.05;;;10.50;;
27213;SDS011;14723;55.814;37.460;2022-09-29T08:31:32;22.42;;;10.52;;
27213;SDS011;14723;55.814;37.460;2022-09-29T08:34:42;17.30;;;10.47;;
27213;SDS011;14723;55.814;37.460;2022-09-29T08:37:47;18.35;;;9.05;;
27213;SDS011;14723;55.814;37.460;2022-09-29T08:40:53;18.77;;;9.73;;
27213;SDS011;14723;55.814;37.460;2022-09-29T08:43:59;19.77;;;9.93;;
27213;SDS011;14723;55.814;37.460;2022-09-29T08:47:13;16.80;;;9.70;;
27213;SDS011;14723;55.814;37.460;2022-09-29T08:50:25;18.25;;;10.05;;
27213;SDS011;14723;55.814;37.460;2022-09-29T08:53:33;20.23;;;11.00;;
27213;SDS011;14723;55.814;37.460;2022-09-29T08:56:39;21.60;;;11.63;;
27213;SDS011;14723;55.814;37.460;2022-09-29T08:59:44;18.95;;;11.00;;
27213;SDS011;14723;55.814;37.460;2022-09-29T09:02:58;17.92;;;10.77;;
27213;SDS011;14723;55.814;37.460;2022-09-29T09:06:12;17.30;;;10.13;;
27213;SDS011;14723;55.814;37.460;2022-09-29T09:09:32;17.92;;;10.43;;
27213;SDS011;14723;55.814;37.460;2022-09-29T09:12:46;19.50;;;10.38;;
27213;SDS011;14723;55.814;37.460;2022-09-29T09:16:08;15.85;;;9.82;;
27213;SDS011;14723;55.814;37.460;2022-09-29T09:19:27;15.50;;;9.25;;
27213;SDS011;14723;55.814;37.460;2022-09-29T09:22:43;15.10;;;8.50;;
27213;SDS011;14723;55.814;37.460;2022-09-29T09:25:52;17.23;;;9.43;;
27213;SDS011;14723;55.814;37.460;2022-09-29T09:28:59;15.05;;;9.00;;
27213;SDS011;14723;55.814;37.460;2022-09-29T09:32:06;14.73;;;9.30;;
27213;SDS011;14723;55.814;37.460;2022-09-29T09:35:19;14.63;;;8.98;;
27213;SDS011;14723;55.814;37.460;2022-09-29T09:38:33;15.27;;;9.57;;
27213;SDS011;14723;55.814;37.460;2022-09-29T09:41:41;16.33;;;8.13;;
27213;SDS011;14723;55.814;37.460;2022-09-29T09:44:47;14.55;;;9.10;;
27213;SDS011;14723;55.814;37.460;2022-09-29T09:47:54;17.73;;;9.25;;
27213;SDS011;14723;55.814;37.460;2022-09-29T09:51:08;13.90;;;8.30;;
27213;SDS011;14723;55.814;37.460;2022-09-29T09:54:18;16.35;;;8.07;;
27213;SDS011;14723;55.814;37.460;2022-09-29T09:57:39;17.45;;;7.85;;
27213;SDS011;14723;55.814;37.460;2022-09-29T10:00:47;15.57;;;8.00;;
27213;SDS011;14723;55.814;37.460;2022-09-29T10:03:53;17.05;;;9.02;;
27213;SDS011;14723;55.814;37.460;2022-09-29T10:06:59;15.77;;;8.52;;
27213;SDS011;14723;55.814;37.460;2022-09-29T10:10:14;14.68;;;8.57;;
27213;SDS011;14723;55.814;37.460;2022-09-29T10:13:21;17.75;;;8.18;;
27213;SDS011;14723;55.814;37.460;2022-09-29T10:16:31;13.82;;;8.52;;
27213;SDS011;14723;55.814;37.460;2022-09-29T10:23:12;19.98;;;8.70;;
27213;SDS011;14723;55.814;37.460;2022-09-29T10:26:25;16.50;;;7.97;;
27213;SDS011;14723;55.814;37.460;2022-09-29T10:29:32;14.20;;;7.65;;
27213;SDS011;14723;55.814;37.460;2022-09-29T10:32:38;11.23;;;7.40;;
27213;SDS011;14723;55.814;37.460;2022-09-29T10:35:43;10.85;;;6.57;;
27213;SDS011;14723;55.814;37.460;2022-09-29T10:38:50;12.63;;;7.00;;
27213;SDS011;14723;55.814;37.460;2022-09-29T10:42:12;10.95;;;6.47;;
27213;SDS011;14723;55.814;37.460;2022-09-29T10:45:19;11.57;;;7.22;;
27213;SDS011;14723;55.814;37.460;2022-09-29T10:48:25;10.40;;;6.63;;
27213;SDS011;14723;55.814;37.460;2022-09-29T10:51:31;13.60;;;6.95;;
27213;SDS011;14723;55.814;37.460;2022-09-29T10:54:36;12.43;;;6.90;;
27213;SDS011;14723;55.814;37.460;2022-09-29T10:57:46;12.02;;;6.88;;
27213;SDS011;14723;55.814;37.460;2022-09-29T11:01:00;12.10;;;6.50;;
27213;SDS011;14723;55.814;37.460;2022-09-29T11:04:12;8.10;;;6.10;;
27213;SDS011;14723;55.814;37.460;2022-09-29T11:07:19;11.05;;;7.10;;
27213;SDS011;14723;55.814;37.460;2022-09-29T11:10:28;13.20;;;7.22;;
27213;SDS011;14723;55.814;37.460;2022-09-29T11:13:38;9.93;;;6.32;;
27213;SDS011;14723;55.814;37.460;2022-09-29T11:16:51;11.07;;;7.35;;
27213;SDS011;14723;55.814;37.460;2022-09-29T11:19:57;10.63;;;6.75;;
27213;SDS011;14723;55.814;37.460;2022-09-29T11:23:07;13.57;;;7.28;;
27213;SDS011;14723;55.814;37.460;2022-09-29T11:26:18;10.63;;;6.68;;
27213;SDS011;14723;55.814;37.460;2022-09-29T11:29:31;12.15;;;7.13;;
27213;SDS011;14723;55.814;37.460;2022-09-29T11:32:42;14.80;;;7.78;;
27213;SDS011;14723;55.814;37.460;2022-09-29T11:35:53;13.77;;;7.97;;
27213;SDS011;14723;55.814;37.460;2022-09-29T11:39:01;13.00;;;7.45;;
27213;SDS011;14723;55.814;37.460;2022-09-29T11:42:16;12.90;;;7.60;;
27213;SDS011;14723;55.814;37.460;2022-09-29T11:45:31;10.00;;;6.60;;
27213;SDS011;14723;55.814;37.460;2022-09-29T11:52:05;9.52;;;6.28;;
27213;SDS011;14723;55.814;37.460;2022-09-29T11:55:16;9.80;;;6.07;;
27213;SDS011;14723;55.814;37.460;2022-09-29T11:58:29;11.05;;;6.10;;
27213;SDS011;14723;55.814;37.460;2022-09-29T12:01:44;7.53;;;5.95;;
27213;SDS011;14723;55.814;37.460;2022-09-29T12:04:55;7.88;;;5.80;;
27213;SDS011;14723;55.814;37.460;2022-09-29T12:08:09;8.65;;;6.00;;
27213;SDS011;14723;55.814;37.460;2022-09-29T12:11:20;7.00;;;5.85;;
27213;SDS011;14723;55.814;37.460;2022-09-29T12:17:58;10.27;;;6.80;;
27213;SDS011;14723;55.814;37.460;2022-09-29T12:21:04;13.73;;;6.25;;
27213;SDS011;14723;55.814;37.460;2022-09-29T12:24:18;10.32;;;6.40;;
27213;SDS011;14723;55.814;37.460;2022-09-29T12:27:24;7.90;;;6.25;;
27213;SDS011;14723;55.814;37.460;2022-09-29T12:30:31;14.30;;;6.55;;
27213;SDS011;14723;55.814;37.460;2022-09-29T12:33:42;11.20;;;7.22;;
27213;SDS011;14723;55.814;37.460;2022-09-29T12:36:48;10.48;;;6.95;;
27213;SDS011;14723;55.814;37.460;2022-09-29T12:39:58;12.75;;;7.00;;
27213;SDS011;14723;55.814;37.460;2022-09-29T12:43:08;10.23;;;6.18;;
27213;SDS011;14723;55.814;37.460;2022-09-29T12:46:18;15.02;;;7.47;;
27213;SDS011;14723;55.814;37.460;2022-09-29T12:49:31;13.07;;;6.82;;
27213;SDS011;14723;55.814;37.460;2022-09-29T12:52:39;13.35;;;7.07;;
27213;SDS011;14723;55.814;37.460;2022-09-29T12:55:48;15.07;;;6.97;;
27213;SDS011;14723;55.814;37.460;2022-09-29T12:58:56;12.15;;;6.28;;
27213;SDS011;14723;55.814;37.460;2022-09-29T13:02:12;9.95;;;6.18;;
27213;SDS011;14723;55.814;37.460;2022-09-29T13:08:57;10.30;;;6.50;;
27213;SDS011;14723;55.814;37.460;2022-09-29T13:12:09;9.85;;;6.65;;
27213;SDS011;14723;55.814;37.460;2022-09-29T13:15:26;10.80;;;5.85;;
27213;SDS011;14723;55.814;37.460;2022-09-29T13:18:39;10.95;;;6.22;;
27213;SDS011;14723;55.814;37.460;2022-09-29T13:25:37;10.80;;;7.25;;
27213;SDS011;14723;55.814;37.460;2022-09-29T13:28:45;12.13;;;6.78;;
27213;SDS011;14723;55.814;37.460;2022-09-29T13:31:52;12.20;;;7.20;;
27213;SDS011;14723;55.814;37.460;2022-09-29T13:34:58;10.60;;;6.72;;
27213;SDS011;14723;55.814;37.460;2022-09-29T13:38:05;14.05;;;7.13;;
27213;SDS011;14723;55.814;37.460;2022-09-29T13:41:14;12.93;;;7.70;;
27213;SDS011;14723;55.814;37.460;2022-09-29T13:44:20;14.07;;;6.80;;
27213;SDS011;14723;55.814;37.460;2022-09-29T13:47:29;12.60;;;7.43;;
27213;SDS011;14723;55.814;37.460;2022-09-29T13:50:41;10.43;;;7.13;;
27213;SDS011;14723;55.814;37.460;2022-09-29T13:53:52;9.75;;;6.60;;
27213;SDS011;14723;55.814;37.460;2022-09-29T13:57:20;15.27;;;8.07;;
27213;SDS011;14723;55.814;37.460;2022-09-29T14:00:29;13.73;;;7.90;;
27213;SDS011;14723;55.814;37.460;2022-09-29T14:03:35;15.48;;;7.57;;
27213;SDS011;14723;55.814;37.460;2022-09-29T14:06:42;13.88;;;7.95;;
27213;SDS011;14723;55.814;37.460;2022-09-29T14:09:51;15.05;;;8.30;;
27213;SDS011;14723;55.814;37.460;2022-09-29T14:13:00;15.07;;;7.97;;
27213;SDS011;14723;55.814;37.460;2022-09-29T14:16:09;16.48;;;8.57;;
27213;SDS011;14723;55.814;37.460;2022-09-29T14:19:22;13.98;;;7.35;;
27213;SDS011;14723;55.814;37.460;2022-09-29T14:25:58;13.82;;;7.40;;
27213;SDS011;14723;55.814;37.460;2022-09-29T14:29:07;19.55;;;9.88;;
27213;SDS011;14723;55.814;37.460;2022-09-29T14:32:16;13.90;;;8.88;;
27213;SDS011;14723;55.814;37.460;2022-09-29T14:35:24;19.45;;;10.23;;
27213;SDS011;14723;55.814;37.460;2022-09-29T14:38:31;13.02;;;7.75;;
27213;SDS011;14723;55.814;37.460;2022-09-29T14:41:39;16.42;;;9.02;;
27213;SDS011;14723;55.814;37.460;2022-09-29T14:44:47;16.35;;;8.65;;
27213;SDS011;14723;55.814;37.460;2022-09-29T14:48:06;15.75;;;9.07;;
27213;SDS011;14723;55.814;37.460;2022-09-29T14:51:39;12.27;;;8.65;;
27213;SDS011;14723;55.814;37.460;2022-09-29T14:55:05;15.57;;;8.18;;
27213;SDS011;14723;55.814;37.460;2022-09-29T14:58:20;22.77;;;11.70;;
27213;SDS011;14723;55.814;37.460;2022-09-29T15:01:33;20.77;;;9.80;;
27213;SDS011;14723;55.814;37.460;2022-09-29T15:04:40;22.80;;;10.20;;
27213;SDS011;14723;55.814;37.460;2022-09-29T15:07:46;20.85;;;10.18;;
27213;SDS011;14723;55.814;37.460;2022-09-29T15:10:51;21.80;;;9.23;;
27213;SDS011;14723;55.814;37.460;2022-09-29T15:13:58;19.17;;;9.53;;
27213;SDS011;14723;55.814;37.460;2022-09-29T15:17:11;23.55;;;12.10;;
27213;SDS011;14723;55.814;37.460;2022-09-29T15:20:21;23.35;;;11.10;;
27213;SDS011;14723;55.814;37.460;2022-09-29T15:23:30;22.17;;;11.50;;
27213;SDS011;14723;55.814;37.460;2022-09-29T15:26:37;18.33;;;9.25;;
27213;SDS011;14723;55.814;37.460;2022-09-29T15:29:44;21.23;;;10.45;;
27213;SDS011;14723;55.814;37.460;2022-09-29T15:32:53;18.75;;;9.70;;
27213;SDS011;14723;55.814;37.460;2022-09-29T15:35:58;19.20;;;9.70;;
27213;SDS011;14723;55.814;37.460;2022-09-29T15:39:06;21.15;;;9.25;;
27213;SDS011;14723;55.814;37.460;2022-09-29T15:42:15;19.50;;;9.30;;
27213;SDS011;14723;55.814;37.460;2022-09-29T15:48:31;19.55;;;10.13;;
27213;SDS011;14723;55.814;37.460;2022-09-29T15:51:36;21.42;;;10.93;;
27213;SDS011;14723;55.814;37.460;2022-09-29T15:54:41;19.27;;;9.75;;
27213;SDS011;14723;55.814;37.460;2022-09-29T15:57:48;21.10;;;10.05;;
27213;SDS011;14723;55.814;37.460;2022-09-29T16:00:56;21.23;;;10.00;;
27213;SDS011;14723;55.814;37.460;2022-09-29T16:04:06;17.17;;;9.60;;
27213;SDS011;14723;55.814;37.460;2022-09-29T16:10:18;16.92;;;9.27;;
27213;SDS011;14723;55.814;37.460;2022-09-29T16:13:24;19.50;;;10.07;;
27213;SDS011;14723;55.814;37.460;2022-09-29T16:16:33;19.23;;;9.15;;
27213;SDS011;14723;55.814;37.460;2022-09-29T16:19:43;24.88;;;11.50;;
27213;SDS011;14723;55.814;37.460;2022-09-29T16:22:49;24.67;;;11.82;;
27213;SDS011;14723;55.814;37.460;2022-09-29T16:29:31;20.20;;;10.02;;
27213;SDS011;14723;55.814;37.460;2022-09-29T16:32:36;19.15;;;10.07;;
27213;SDS011;14723;55.814;37.460;2022-09-29T16:35:47;27.53;;;12.00;;
27213;SDS011;14723;55.814;37.460;2022-09-29T16:38:59;19.60;;;10.30;;
27213;SDS011;14723;55.814;37.460;2022-09-29T16:42:04;16.90;;;9.30;;
27213;SDS011;14723;55.814;37.460;2022-09-29T16:45:12;16.95;;;9.73;;
27213;SDS011;14723;55.814;37.460;2022-09-29T16:48:18;22.40;;;10.13;;
27213;SDS011;14723;55.814;37.460;2022-09-29T16:51:26;40.90;;;24.00;;
27213;SDS011;14723;55.814;37.460;2022-09-29T16:54:41;21.00;;;11.55;;
27213;SDS011;14723;55.814;37.460;2022-09-29T16:57:49;24.20;;;12.70;;
27213;SDS011;14723;55.814;37.460;2022-09-29T17:00:55;19.35;;;10.82;;
27213;SDS011;14723;55.814;37.460;2022-09-29T17:04:01;17.05;;;10.55;;
27213;SDS011;14723;55.814;37.460;2022-09-29T17:07:10;23.00;;;11.65;;
27213;SDS011;14723;55.814;37.460;2022-09-29T17:10:17;26.95;;;13.60;;
27213;SDS011;14723;55.814;37.460;2022-09-29T17:13:23;26.80;;;16.35;;
27213;SDS011;14723;55.814;37.460;2022-09-29T17:16:28;34.42;;;16.50;;
27213;SDS011;14723;55.814;37.460;2022-09-29T17:19:33;29.00;;;15.85;;
27213;SDS011;14723;55.814;37.460;2022-09-29T17:22:41;20.65;;;11.45;;
27213;SDS011;14723;55.814;37.460;2022-09-29T17:25:46;21.27;;;11.13;;
27213;SDS011;14723;55.814;37.460;2022-09-29T17:28:51;18.10;;;10.45;;
27213;SDS011;14723;55.814;37.460;2022-09-29T17:31:54;22.73;;;11.70;;
27213;SDS011;14723;55.814;37.460;2022-09-29T17:34:59;22.50;;;12.20;;
27213;SDS011;14723;55.814;37.460;2022-09-29T17:38:06;20.20;;;12.38;;
27213;SDS011;14723;55.814;37.460;2022-09-29T17:41:12;20.80;;;10.95;;
27213;SDS011;14723;55.814;37.460;2022-09-29T17:44:19;24.75;;;11.73;;
27213;SDS011;14723;55.814;37.460;2022-09-29T17:47:24;23.92;;;12.02;;
27213;SDS011;14723;55.814;37.460;2022-09-29T17:50:33;22.88;;;11.55;;
27213;SDS011;14723;55.814;37.460;2022-09-29T17:56:48;20.63;;;11.48;;
27213;SDS011;14723;55.814;37.460;2022-09-29T17:59:53;31.23;;;17.63;;
27213;SDS011;14723;55.814;37.460;2022-09-29T18:03:00;21.80;;;12.32;;
27213;SDS011;14723;55.814;37.460;2022-09-29T18:06:06;19.23;;;11.60;;
27213;SDS011;14723;55.814;37.460;2022-09-29T18:09:13;20.98;;;12.02;;
27213;SDS011;14723;55.814;37.460;2022-09-29T18:12:21;21.38;;;10.95;;
27213;SDS011;14723;55.814;37.460;2022-09-29T18:15:26;17.47;;;10.47;;
27213;SDS011;14723;55.814;37.460;2022-09-29T18:18:31;21.73;;;11.40;;
27213;SDS011;14723;55.814;37.460;2022-09-29T18:21:36;25.20;;;15.27;;
27213;SDS011;14723;55.814;37.460;2022-09-29T18:24:41;31.40;;;14.27;;
27213;SDS011;14723;55.814;37.460;2022-09-29T18:27:49;19.85;;;12.07;;
27213;SDS011;14723;55.814;37.460;2022-09-29T18:34:00;19.92;;;10.65;;
27213;SDS011;14723;55.814;37.460;2022-09-29T18:37:05;20.83;;;11.45;;
27213;SDS011;14723;55.814;37.460;2022-09-29T18:40:10;17.20;;;10.80;;
27213;SDS011;14723;55.814;37.460;2022-09-29T18:43:18;19.20;;;10.75;;
27213;SDS011;14723;55.814;37.460;2022-09-29T18:46:26;26.73;;;10.43;;
27213;SDS011;14723;55.814;37.460;2022-09-29T18:49:32;19.20;;;11.23;;
27213;SDS011;14723;55.814;37.460;2022-09-29T18:52:37;19.00;;;10.90;;
27213;SDS011;14723;55.814;37.460;2022-09-29T18:55:42;18.98;;;10.38;;
27213;SDS011;14723;55.814;37.460;2022-09-29T18:58:50;22.35;;;11.20;;
27213;SDS011;14723;55.814;37.460;2022-09-29T19:01:55;26.45;;;10.82;;
27213;SDS011;14723;55.814;37.460;2022-09-29T19:05:00;19.00;;;11.20;;
27213;SDS011;14723;55.814;37.460;2022-09-29T19:08:05;19.48;;;10.52;;
27213;SDS011;14723;55.814;37.460;2022-09-29T19:11:15;18.02;;;9.77;;